Time;durP1;ratioP1;P1;durP2;ratioP2;P2;SDS_P1;SDS_P2;PMS_P1;PMS_P2;Temp;Humidity;BMP_temperature;BMP_pressure;BME280_temperature;BME280_humidity;BME280_pressure;Samples;Min_cycle;Max_cycle;Signal;HPM_P1;HPM_P2
2022/01/11 00:01:26;;;;;;;72.80;24.93;;;;;;;-145.18;100.00;47754.41;5028087;28;20033;-72
2022/01/11 00:03:53;;;;;;;73.70;22.65;;;;;;;-145.18;100.00;47744.66;5029125;28;20037;-72
2022/01/11 00:06:35;;;;;;;77.22;24.65;;;;;;;-145.18;100.00;47772.00;5028152;28;20044;-72
2022/01/11 00:09:07;;;;;;;69.15;24.05;;;;;;;-145.18;100.00;47746.59;5028598;28;20041;-71
2022/01/11 00:11:35;;;;;;;72.32;24.48;;;;;;;-145.18;100.00;47750.50;5026419;28;20072;-72
2022/01/11 00:14:00;;;;;;;73.05;24.00;;;;;;;-145.18;100.00;47785.69;5028501;28;20052;-72
2022/01/11 00:16:26;;;;;;;67.60;22.60;;;;;;;-145.18;100.00;47773.97;5027083;28;20045;-72
2022/01/11 00:18:51;;;;;;;64.03;23.70;;;;;;;-145.18;100.00;47756.38;5028418;28;20048;-71
2022/01/11 00:21:16;;;;;;;76.87;25.13;;;;;;;-145.18;100.00;47752.47;5028022;28;20124;-72
2022/01/11 00:26:08;;;;;;;87.90;26.03;;;;;;;-145.18;100.00;47742.69;5027367;28;20049;-72
2022/01/11 00:28:33;;;;;;;88.33;28.13;;;;;;;-145.18;100.00;47738.78;5026552;28;20057;-72
2022/01/11 00:30:59;;;;;;;86.23;26.87;;;;;;;-145.18;100.00;47754.41;5027379;28;20053;-72
2022/01/11 00:33:37;;;;;;;90.13;28.80;;;;;;;-145.18;100.00;47742.69;5028011;28;20041;-72
2022/01/11 00:36:06;;;;;;;95.75;27.63;;;;;;;-145.18;100.00;47746.59;5027752;28;20087;-72
2022/01/11 00:38:35;;;;;;;89.22;25.90;;;;;;;-145.18;100.00;47738.78;5027871;28;20152;-72
2022/01/11 00:41:03;;;;;;;88.20;26.35;;;;;;;-145.18;100.00;47770.03;5025987;28;20049;-71
2022/01/11 00:43:29;;;;;;;89.78;26.88;;;;;;;-145.18;100.00;47785.69;5027725;28;20040;-71
2022/01/11 00:45:56;;;;;;;83.33;25.97;;;;;;;-145.18;100.00;47779.81;5027494;28;20766;-72
2022/01/11 00:48:22;;;;;;;88.60;27.20;;;;;;;-145.18;100.00;47758.31;5027603;28;20049;-71
2022/01/11 00:50:48;;;;;;;92.07;28.60;;;;;;;-145.18;100.00;47762.22;5028060;28;20029;-71
2022/01/11 00:53:14;;;;;;;103.43;30.25;;;;;;;-145.18;100.00;47740.75;5028077;28;20041;-71
2022/01/11 00:55:40;;;;;;;114.73;32.23;;;;;;;-145.18;100.00;47734.88;5026816;28;20442;-71
2022/01/11 00:58:06;;;;;;;118.37;32.63;;;;;;;-145.18;100.00;47772.00;5027690;28;20279;-72
2022/01/11 01:00:34;;;;;;;121.75;33.05;;;;;;;-145.18;100.00;47768.09;5025358;28;20452;-71
2022/01/11 01:02:59;;;;;;;118.05;32.20;;;;;;;-145.18;100.00;47772.00;5027620;28;20129;-72
2022/01/11 01:05:25;;;;;;;113.43;32.73;;;;;;;-145.18;100.00;47752.47;5008832;28;20112;-72
2022/01/11 01:07:50;;;;;;;108.67;31.57;;;;;;;-145.18;100.00;47758.31;5028090;28;20364;-72
2022/01/11 01:10:26;;;;;;;107.40;31.13;;;;;;;-145.18;100.00;47732.94;5025715;28;20037;-72
2022/01/11 01:12:53;;;;;;;110.25;30.40;;;;;;;-145.18;100.00;47758.31;5027347;28;20425;-71
2022/01/11 01:15:20;;;;;;;105.40;30.15;;;;;;;-145.18;100.00;47738.78;5026812;28;20038;-72
2022/01/11 01:17:46;;;;;;;99.90;29.35;;;;;;;-145.18;100.00;47746.59;5027162;28;20029;-72
2022/01/11 01:20:12;;;;;;;92.37;29.27;;;;;;;-145.18;100.00;47764.19;5026141;28;20107;-72
2022/01/11 01:22:37;;;;;;;98.83;29.87;;;;;;;-145.18;100.00;47742.69;5026764;28;20034;-71
2022/01/11 01:25:04;;;;;;;100.07;28.73;;;;;;;-145.18;100.00;47736.84;5026565;28;20030;-72
2022/01/11 01:27:29;;;;;;;100.80;29.33;;;;;;;-145.18;100.00;47764.19;5027344;28;20029;-72
2022/01/11 01:29:54;;;;;;;98.93;29.50;;;;;;;-145.18;100.00;47748.56;5026637;28;20045;-72
2022/01/11 01:32:20;;;;;;;98.13;29.77;;;;;;;-145.18;100.00;47770.03;5026584;28;20535;-72
2022/01/11 01:34:46;;;;;;;86.27;26.33;;;;;;;-145.18;100.00;47756.38;5026830;28;20151;-71
2022/01/11 01:37:12;;;;;;;83.85;27.38;;;;;;;-145.18;100.00;47756.38;5026280;28;20124;-71
2022/01/11 01:39:37;;;;;;;94.63;29.30;;;;;;;-145.18;100.00;47756.38;5026643;28;20034;-71
2022/01/11 01:42:05;;;;;;;90.73;27.77;;;;;;;-145.18;100.00;47748.56;5027304;28;20037;-71
2022/01/11 01:44:33;;;;;;;95.75;28.83;;;;;;;-145.18;100.00;47750.50;5026491;28;20048;-72
2022/01/11 01:46:58;;;;;;;84.88;26.88;;;;;;;-145.18;100.00;47744.66;5026622;28;20045;-71
2022/01/11 01:49:24;;;;;;;92.03;28.23;;;;;;;-145.18;100.00;47754.41;5026445;28;20046;-71
2022/01/11 01:51:50;;;;;;;96.40;28.87;;;;;;;-145.18;100.00;47764.19;5026649;28;20041;-71
2022/01/11 01:54:16;;;;;;;93.17;26.33;;;;;;;-145.18;100.00;47760.28;5026168;28;20279;-71
2022/01/11 01:56:43;;;;;;;101.23;31.80;;;;;;;-145.18;100.00;47779.81;5026350;28;20041;-71
2022/01/11 01:59:09;;;;;;;95.47;28.27;;;;;;;-145.18;100.00;47758.31;5027311;28;20517;-71
2022/01/11 02:01:39;;;;;;;94.03;28.47;;;;;;;-145.18;100.00;47766.13;5026022;28;20030;-71
2022/01/11 02:04:05;;;;;;;109.82;32.50;;;;;;;-145.18;100.00;47748.56;5026184;28;20029;-71
2022/01/11 02:06:30;;;;;;;103.93;30.03;;;;;;;-145.18;100.00;47750.50;5026195;28;20041;-72
2022/01/11 02:08:55;;;;;;;109.53;33.53;;;;;;;-145.18;100.00;47773.97;5026524;28;20087;-72
2022/01/11 02:11:24;;;;;;;103.57;33.90;;;;;;;-145.18;100.00;47723.16;5026094;28;20072;-71
2022/01/11 02:13:51;;;;;;;103.72;32.30;;;;;;;-145.18;100.00;47734.88;5026637;28;20118;-72
2022/01/11 02:16:19;;;;;;;90.65;27.67;;;;;;;-145.18;100.00;47762.22;5024386;28;20402;-71
2022/01/11 02:18:46;;;;;;;97.03;32.00;;;;;;;-145.18;100.00;47758.31;5025292;28;20040;-73
2022/01/11 02:21:12;;;;;;;81.50;27.25;;;;;;;-145.18;100.00;47740.75;5028824;28;20054;-71
2022/01/11 02:23:37;;;;;;;88.07;28.30;;;;;;;-145.18;100.00;47738.78;5028902;28;20045;-71
2022/01/11 02:26:03;;;;;;;78.13;26.43;;;;;;;-145.18;100.00;47785.69;5028017;28;20073;-71
2022/01/11 02:28:29;;;;;;;75.87;24.87;;;;;;;-145.18;100.00;47768.09;5028641;28;20030;-71
2022/01/11 02:30:56;;;;;;;77.68;26.27;;;;;;;-145.18;100.00;47738.78;5029570;28;20495;-71
2022/01/11 02:33:35;;;;;;;89.68;29.38;;;;;;;-145.18;100.00;47752.47;5030242;28;20037;-72
2022/01/11 02:36:09;;;;;;;74.97;27.67;;;;;;;-145.18;100.00;47754.41;5029730;28;20029;-71
2022/01/11 02:38:35;;;;;;;84.03;28.70;;;;;;;-145.18;100.00;47732.94;5029700;28;20399;-71
2022/01/11 02:41:01;;;;;;;81.57;25.93;;;;;;;-145.18;100.00;47764.19;5029458;28;20041;-71
2022/01/11 02:43:27;;;;;;;79.68;25.80;;;;;;;-145.18;100.00;47742.69;5029780;28;20080;-71
2022/01/11 02:45:53;;;;;;;82.33;26.93;;;;;;;-145.18;100.00;47736.84;5029150;28;20088;-72
2022/01/11 02:48:18;;;;;;;81.53;26.47;;;;;;;-145.18;100.00;47756.38;5029902;28;20522;-71
2022/01/11 02:50:45;;;;;;;84.97;28.03;;;;;;;-145.18;100.00;47746.59;5029141;28;20046;-71
2022/01/11 02:53:11;;;;;;;81.32;28.88;;;;;;;-145.18;100.00;47750.50;5029559;28;20156;-72
2022/01/11 02:55:39;;;;;;;83.60;28.63;;;;;;;-145.18;100.00;47756.38;5028814;28;20076;-71
2022/01/11 02:58:05;;;;;;;81.00;27.25;;;;;;;-145.18;100.00;47750.50;5029571;28;20045;-71
2022/01/11 03:00:31;;;;;;;80.03;27.93;;;;;;;-145.18;100.00;47732.94;5028921;28;20033;-71
2022/01/11 03:03:12;;;;;;;71.73;25.93;;;;;;;-145.18;100.00;47758.31;5029243;28;20041;-72
2022/01/11 03:05:44;;;;;;;80.93;27.15;;;;;;;-145.18;100.00;47760.28;5027054;28;20087;-71
2022/01/11 03:08:10;;;;;;;76.30;26.63;;;;;;;-145.18;100.00;47750.50;5029512;28;20378;-72
2022/01/11 03:10:36;;;;;;;80.60;28.73;;;;;;;-145.18;100.00;47773.97;5028522;28;20057;-72
2022/01/11 03:13:05;;;;;;;78.13;28.17;;;;;;;-145.18;100.00;47752.47;5029117;28;20146;-72
2022/01/11 03:15:30;;;;;;;77.55;29.02;;;;;;;-145.18;100.00;47770.03;5028564;28;20053;-72
2022/01/11 03:17:55;;;;;;;79.67;26.97;;;;;;;-145.18;100.00;47756.38;5029780;28;20080;-71
2022/01/11 03:20:21;;;;;;;84.43;28.50;;;;;;;-145.18;100.00;47730.97;5029161;28;20042;-72
2022/01/11 03:22:47;;;;;;;71.77;25.57;;;;;;;-145.18;100.00;47762.22;5028427;28;20379;-71
2022/01/11 03:25:13;;;;;;;70.77;25.40;;;;;;;-145.18;100.00;47785.69;5029063;28;20495;-71
2022/01/11 03:27:40;;;;;;;65.87;25.47;;;;;;;-145.18;100.00;47750.50;5026864;28;20034;-72
2022/01/11 03:30:06;;;;;;;63.95;23.27;;;;;;;-145.18;100.00;47750.50;5029080;28;20045;-71
2022/01/11 03:32:32;;;;;;;59.92;24.42;;;;;;;-145.18;100.00;47744.66;5028477;28;20091;-71
2022/01/11 03:34:57;;;;;;;83.10;27.57;;;;;;;-145.18;100.00;47748.56;5029085;28;20034;-71
2022/01/11 03:37:23;;;;;;;82.13;27.17;;;;;;;-145.18;100.00;47746.59;5028358;28;20494;-71
2022/01/11 03:39:48;;;;;;;84.67;30.83;;;;;;;-145.18;100.00;47732.94;5028529;28;20033;-71
2022/01/11 03:42:14;;;;;;;81.67;28.63;;;;;;;-145.18;100.00;47766.13;5028018;28;20057;-71
2022/01/11 03:44:40;;;;;;;81.97;28.93;;;;;;;-145.18;100.00;47762.22;5028443;28;20120;-72
2022/01/11 03:47:05;;;;;;;78.93;29.43;;;;;;;-145.18;100.00;47744.66;5029102;28;20118;-72
2022/01/11 03:49:31;;;;;;;85.10;29.63;;;;;;;-145.18;100.00;47742.69;5027895;28;20620;-72
2022/01/11 03:51:57;;;;;;;78.00;29.15;;;;;;;-145.18;100.00;47762.22;5028208;28;20030;-72
2022/01/11 03:54:26;;;;;;;83.83;28.50;;;;;;;-145.18;100.00;47742.69;5028119;28;20037;-72
2022/01/11 03:56:52;;;;;;;77.32;27.33;;;;;;;-145.18;100.00;47750.50;5028026;28;20150;-71
2022/01/11 03:59:19;;;;;;;74.57;28.02;;;;;;;-145.18;100.00;47742.69;5028259;28;20051;-73
2022/01/11 04:01:45;;;;;;;72.15;25.85;;;;;;;-145.18;100.00;47746.59;5027666;28;20038;-73
2022/01/11 04:04:11;;;;;;;74.80;25.77;;;;;;;-145.18;100.00;47760.28;5028572;28;20045;-74
2022/01/11 04:06:38;;;;;;;74.43;27.10;;;;;;;-145.18;100.00;47721.19;5028303;28;20041;-73
2022/01/11 04:09:05;;;;;;;72.07;26.15;;;;;;;-145.18;100.00;47729.00;5028157;28;20042;-73
2022/01/11 04:11:31;;;;;;;68.57;25.88;;;;;;;-145.18;100.00;47742.69;5027451;28;20524;-73
2022/01/11 04:13:57;;;;;;;70.22;26.42;;;;;;;-145.18;100.00;47715.34;5028318;28;20461;-73
2022/01/11 04:16:22;;;;;;;70.90;25.70;;;;;;;-145.18;100.00;47734.88;5027822;28;20037;-73
2022/01/11 04:18:48;;;;;;;74.27;26.67;;;;;;;-145.18;100.00;47752.47;5027621;28;20037;-73
2022/01/11 04:21:13;;;;;;;64.93;25.20;;;;;;;-145.18;100.00;47736.84;5027874;28;20038;-73
2022/01/11 04:23:39;;;;;;;69.30;25.33;;;;;;;-145.18;100.00;47730.97;5026388;28;20516;-73
2022/01/11 04:26:05;;;;;;;66.00;24.77;;;;;;;-145.18;100.00;47756.38;5027483;28;21329;-73
2022/01/11 04:28:31;;;;;;;65.97;26.08;;;;;;;-145.18;100.00;47758.31;5027637;28;20037;-73
2022/01/11 04:30:59;;;;;;;75.13;26.60;;;;;;;-145.18;100.00;47754.41;5027255;28;20044;-73
2022/01/11 04:33:29;;;;;;;67.47;26.15;;;;;;;-145.18;100.00;47750.50;5027621;28;20643;-73
2022/01/11 04:35:56;;;;;;;67.38;27.02;;;;;;;-145.18;100.00;47744.66;5027417;28;20045;-72
2022/01/11 04:38:24;;;;;;;68.00;25.55;;;;;;;-145.18;100.00;47768.09;5027462;28;20041;-73
2022/01/11 04:40:51;;;;;;;67.13;24.27;;;;;;;-145.18;100.00;47766.13;5027128;28;20124;-73
2022/01/11 04:43:16;;;;;;;73.60;26.33;;;;;;;-145.18;100.00;47766.13;5027348;28;20045;-73
2022/01/11 04:45:41;;;;;;;76.33;26.30;;;;;;;-145.18;100.00;47762.22;5026607;28;20064;-73
2022/01/11 04:48:07;;;;;;;69.60;27.17;;;;;;;-145.18;100.00;47742.69;5027108;28;20041;-73
2022/01/11 04:50:33;;;;;;;61.03;24.27;;;;;;;-145.18;100.00;47772.00;5027413;28;20510;-73
2022/01/11 04:53:00;;;;;;;64.78;24.27;;;;;;;-145.18;100.00;47781.78;5027229;28;20302;-73
2022/01/11 04:55:26;;;;;;;65.15;25.58;;;;;;;-145.18;100.00;47770.03;5026481;28;20530;-73
2022/01/11 04:57:51;;;;;;;65.87;24.67;;;;;;;-145.18;100.00;47762.22;5027716;28;20132;-73
2022/01/11 05:00:18;;;;;;;59.63;23.53;;;;;;;-145.18;100.00;47762.22;5027310;28;20041;-73
2022/01/11 05:02:44;;;;;;;64.28;24.08;;;;;;;-145.18;100.00;47768.09;5024956;28;20484;-73
2022/01/11 05:05:10;;;;;;;61.47;23.17;;;;;;;-145.18;100.00;47768.09;5027228;28;20060;-73
2022/01/11 05:07:35;;;;;;;53.57;21.50;;;;;;;-145.18;100.00;47744.66;5026269;28;20033;-74
2022/01/11 05:10:04;;;;;;;57.40;21.50;;;;;;;-145.18;100.00;47756.38;5027294;28;20034;-74
2022/01/11 05:12:29;;;;;;;59.88;22.15;;;;;;;-145.18;100.00;47766.13;5025463;28;20403;-74
2022/01/11 05:14:54;;;;;;;60.67;22.87;;;;;;;-145.18;100.00;47758.31;5027386;28;20041;-71
2022/01/11 05:17:20;;;;;;;63.27;23.93;;;;;;;-145.18;100.00;47736.84;5025446;28;20089;-73
2022/01/11 05:19:45;;;;;;;55.63;23.13;;;;;;;-145.18;100.00;47752.47;5017548;28;20046;-74
2022/01/11 05:22:10;;;;;;;60.17;21.60;;;;;;;-145.18;100.00;47730.97;5014696;28;20057;-71
2022/01/11 05:24:36;;;;;;;56.93;21.93;;;;;;;-145.18;100.00;47758.31;5017100;28;20041;-73
2022/01/11 05:27:01;;;;;;;51.10;21.33;;;;;;;-145.18;100.00;47756.38;5015122;28;20052;-74
2022/01/11 05:29:26;;;;;;;56.30;22.03;;;;;;;-145.18;100.00;47748.56;5015683;28;20148;-73
2022/01/11 05:31:52;;;;;;;56.77;22.27;;;;;;;-145.18;100.00;47760.28;5016418;28;20038;-73
2022/01/11 05:34:17;;;;;;;53.37;21.83;;;;;;;-145.18;100.00;47758.31;5014851;28;20034;-73
2022/01/11 05:36:43;;;;;;;55.30;21.37;;;;;;;-145.18;100.00;47758.31;5016585;28;20733;-73
2022/01/11 05:39:08;;;;;;;55.43;22.13;;;;;;;-145.18;100.00;47734.88;5022302;28;20522;-72
2022/01/11 05:41:34;;;;;;;58.63;21.67;;;;;;;-145.18;100.00;47762.22;5017011;28;20053;-74
2022/01/11 05:43:59;;;;;;;58.37;21.80;;;;;;;-145.18;100.00;47764.19;5024098;28;20056;-72
2022/01/11 05:46:26;;;;;;;60.70;22.90;;;;;;;-145.18;100.00;47781.78;5026109;28;20049;-73
2022/01/11 05:48:52;;;;;;;56.42;22.55;;;;;;;-145.18;100.00;47783.72;5026846;28;20132;-73
2022/01/11 05:51:17;;;;;;;56.97;22.70;;;;;;;-145.18;100.00;47764.19;5024224;28;20125;-73
2022/01/11 05:53:43;;;;;;;59.83;22.80;;;;;;;-145.18;100.00;47777.88;5025191;28;20477;-73
2022/01/11 05:56:09;;;;;;;61.38;24.13;;;;;;;-145.18;100.00;47764.19;5028585;28;20029;-74
2022/01/11 05:58:35;;;;;;;59.10;23.67;;;;;;;-145.18;100.00;47762.22;5031485;28;20061;-73
2022/01/11 06:01:00;;;;;;;65.97;23.77;;;;;;;-145.18;100.00;47766.13;5030442;28;20208;-73
2022/01/11 06:03:26;;;;;;;63.20;26.33;;;;;;;-145.18;100.00;47764.19;5028707;28;20041;-73
2022/01/11 06:05:52;;;;;;;65.03;24.83;;;;;;;-145.18;100.00;47752.47;5030687;28;20036;-73
2022/01/11 06:08:17;;;;;;;71.13;26.97;;;;;;;-145.18;100.00;47748.56;5024430;28;20115;-73
2022/01/11 06:10:44;;;;;;;70.20;26.60;;;;;;;-145.18;100.00;47766.13;5019738;28;20060;-74
2022/01/11 06:13:10;;;;;;;72.30;26.45;;;;;;;-145.18;100.00;47752.47;5028489;28;20033;-73
2022/01/11 06:15:36;;;;;;;80.00;29.35;;;;;;;-145.18;100.00;47752.47;5027425;28;20548;-73
2022/01/11 06:18:02;;;;;;;84.07;28.27;;;;;;;-145.18;100.00;47758.31;5028149;28;20033;-73
2022/01/11 06:20:27;;;;;;;89.67;30.50;;;;;;;-145.18;100.00;47738.78;5027440;28;20059;-73
2022/01/11 06:22:53;;;;;;;86.63;29.10;;;;;;;-145.18;100.00;47742.69;5028490;28;20285;-73
2022/01/11 06:25:19;;;;;;;89.53;30.77;;;;;;;-145.18;100.00;47727.06;5028326;28;20517;-73
2022/01/11 06:27:44;;;;;;;87.23;31.70;;;;;;;-145.18;100.00;47752.47;5027644;28;20049;-75
2022/01/11 06:30:10;;;;;;;86.70;30.10;;;;;;;-145.18;100.00;47768.09;5028587;28;20037;-73
2022/01/11 06:32:37;;;;;;;92.13;30.40;;;;;;;-145.18;100.00;47766.13;5025220;28;20090;-73
2022/01/11 06:35:03;;;;;;;88.07;30.88;;;;;;;-145.18;100.00;47744.66;5028490;28;20045;-73
2022/01/11 06:37:29;;;;;;;87.85;29.92;;;;;;;-145.18;100.00;47781.78;5026205;28;20025;-73
2022/01/11 06:39:54;;;;;;;92.80;32.37;;;;;;;-145.18;100.00;47758.31;5027644;28;20052;-73
2022/01/11 06:42:20;;;;;;;88.50;31.93;;;;;;;-145.18;100.00;47750.50;5027155;28;20057;-74
2022/01/11 06:44:45;;;;;;;96.10;32.60;;;;;;;-145.18;100.00;47762.22;5026244;28;20152;-73
2022/01/11 06:47:11;;;;;;;97.47;32.67;;;;;;;-145.18;100.00;47730.97;5026561;28;20060;-73
2022/01/11 06:49:37;;;;;;;90.77;30.63;;;;;;;-145.18;100.00;47777.88;5026155;28;21931;-73
2022/01/11 06:52:04;;;;;;;81.80;30.23;;;;;;;-145.18;100.00;47748.56;5027570;28;20064;-73
2022/01/11 06:54:29;;;;;;;86.45;31.17;;;;;;;-145.18;100.00;47768.09;5024846;28;20061;-73
2022/01/11 06:56:55;;;;;;;87.43;31.20;;;;;;;-145.18;100.00;47756.38;5025523;28;20548;-73
2022/01/11 06:59:20;;;;;;;83.53;30.77;;;;;;;-145.18;100.00;47779.81;5025523;28;20036;-73
2022/01/11 07:01:46;;;;;;;79.10;27.97;;;;;;;-145.18;100.00;47762.22;5023728;28;20690;-73
2022/01/11 07:04:11;;;;;;;89.17;30.87;;;;;;;-145.18;100.00;47772.00;5026073;28;20045;-73
2022/01/11 07:06:37;;;;;;;82.67;29.90;;;;;;;-145.18;100.00;47773.97;5024316;28;20072;-73
2022/01/11 07:09:02;;;;;;;87.63;29.23;;;;;;;-145.18;100.00;47732.94;5027639;28;20141;-73
2022/01/11 07:11:28;;;;;;;74.63;27.77;;;;;;;-145.18;100.00;47748.56;5024439;28;20159;-73
2022/01/11 07:13:53;;;;;;;80.77;28.43;;;;;;;-145.18;100.00;47742.69;5028147;28;20042;-73
2022/01/11 07:16:19;;;;;;;72.53;26.83;;;;;;;-145.18;100.00;47760.28;5026558;28;20049;-73
2022/01/11 07:18:44;;;;;;;73.53;27.77;;;;;;;-145.18;100.00;47766.13;5025514;28;20072;-73
2022/01/11 07:21:10;;;;;;;71.30;27.30;;;;;;;-145.18;100.00;47766.13;5021905;28;20061;-73
2022/01/11 07:23:35;;;;;;;66.33;25.13;;;;;;;-145.18;100.00;47770.03;5022177;28;20119;-73
2022/01/11 07:26:02;;;;;;;67.43;24.70;;;;;;;-145.18;100.00;47772.00;5023984;28;20072;-74
2022/01/11 07:28:29;;;;;;;66.45;25.73;;;;;;;-145.18;100.00;47773.97;5020393;28;20498;-73
2022/01/11 07:30:55;;;;;;;60.95;23.25;;;;;;;-145.18;100.00;47785.69;5027406;28;20076;-73
2022/01/11 07:33:20;;;;;;;57.60;22.73;;;;;;;-145.18;100.00;47762.22;5026648;28;20049;-72
2022/01/11 07:35:45;;;;;;;58.67;24.13;;;;;;;-145.18;100.00;47752.47;5025893;28;20136;-73
2022/01/11 07:38:11;;;;;;;62.37;23.00;;;;;;;-145.18;100.00;47748.56;5024712;28;20050;-73
2022/01/11 07:40:37;;;;;;;57.13;22.05;;;;;;;-145.18;100.00;47746.59;5025138;28;20055;-73
2022/01/11 07:43:03;;;;;;;56.20;21.10;;;;;;;-145.18;100.00;47752.47;5027278;28;20121;-72
2022/01/11 07:45:28;;;;;;;57.83;23.83;;;;;;;-145.18;100.00;47748.56;5025728;28;20107;-73
2022/01/11 07:47:54;;;;;;;52.47;21.30;;;;;;;-145.18;100.00;47754.41;5026463;28;20667;-73
2022/01/11 07:50:19;;;;;;;47.77;20.10;;;;;;;-145.18;100.00;47723.16;5026287;28;20045;-73
2022/01/11 07:52:44;;;;;;;48.43;19.67;;;;;;;-145.18;100.00;47719.25;5021031;28;20057;-73
2022/01/11 07:55:10;;;;;;;52.50;19.83;;;;;;;-145.18;100.00;47715.34;5026983;28;20052;-73
2022/01/11 07:57:36;;;;;;;48.67;21.40;;;;;;;-145.18;100.00;47740.75;5025318;28;20041;-73
2022/01/11 08:00:05;;;;;;;52.20;19.77;;;;;;;-145.18;100.00;47721.19;5026734;28;20052;-72
2022/01/11 08:02:30;;;;;;;46.97;20.08;;;;;;;-145.18;100.00;47736.84;5024833;28;20038;-72
2022/01/11 08:04:56;;;;;;;46.07;19.40;;;;;;;-145.18;100.00;47729.00;5025134;28;20041;-73
2022/01/11 08:07:21;;;;;;;46.80;18.57;;;;;;;-145.18;100.00;47703.63;5025465;28;20045;-72
2022/01/11 08:09:47;;;;;;;46.63;19.73;;;;;;;-145.18;100.00;47723.16;5024729;28;20144;-73
2022/01/11 08:12:12;;;;;;;51.70;19.13;;;;;;;-145.18;100.00;47740.75;5025983;28;20041;-73
2022/01/11 08:14:37;;;;;;;41.67;17.67;;;;;;;-145.18;100.00;47723.16;5025918;28;20049;-72
2022/01/11 08:17:03;;;;;;;39.07;17.53;;;;;;;-145.18;100.00;47742.69;5025804;28;20048;-72
2022/01/11 08:19:30;;;;;;;38.43;18.20;;;;;;;-145.18;100.00;47699.72;5023403;28;20037;-72
2022/01/11 08:21:56;;;;;;;40.40;17.05;;;;;;;-145.18;100.00;47717.28;5025749;28;20026;-73
2022/01/11 08:24:23;;;;;;;37.35;17.00;;;;;;;-145.18;100.00;47721.19;5025835;28;20510;-72
2022/01/11 08:26:50;;;;;;;37.78;15.80;;;;;;;-145.18;100.00;47703.63;5023744;28;20049;-73
2022/01/11 08:29:18;;;;;;;34.17;15.80;;;;;;;-145.18;100.00;47750.50;5025251;28;20041;-73
2022/01/11 08:31:44;;;;;;;38.92;17.42;;;;;;;-145.18;100.00;47705.56;5025679;28;20053;-72
2022/01/11 08:34:13;;;;;;;37.22;15.95;;;;;;;-145.18;100.00;47719.25;5024973;28;20045;-72
2022/01/11 08:36:40;;;;;;;38.33;15.70;;;;;;;-145.18;100.00;47703.63;5024009;28;20059;-73
2022/01/11 08:39:05;;;;;;;37.22;15.40;;;;;;;-145.18;100.00;47705.56;5017541;28;20045;-72
2022/01/11 08:41:30;;;;;;;36.40;15.90;;;;;;;-145.18;100.00;47719.25;5023910;28;20041;-72
2022/01/11 08:43:56;;;;;;;36.53;15.37;;;;;;;-145.18;100.00;47729.00;5025005;28;20033;-72
2022/01/11 08:46:21;;;;;;;37.10;16.10;;;;;;;-145.18;100.00;47727.06;5022697;28;20506;-73
2022/01/11 08:48:47;;;;;;;33.73;16.00;;;;;;;-145.18;100.00;47707.53;5024927;28;20453;-73
2022/01/11 08:51:12;;;;;;;34.20;14.80;;;;;;;-145.18;100.00;47705.56;5025572;28;20041;-72
2022/01/11 08:53:37;;;;;;;40.90;15.40;;;;;;;-145.18;100.00;47711.44;5024195;28;20046;-73
2022/01/11 08:56:05;;;;;;;39.63;16.07;;;;;;;-145.18;100.00;47719.25;5025166;28;20108;-72
2022/01/11 08:58:30;;;;;;;38.50;16.60;;;;;;;-145.18;100.00;47707.53;5024167;28;20099;-73
2022/01/11 09:00:56;;;;;;;38.93;16.10;;;;;;;-145.18;100.00;47711.44;5024685;28;20486;-73
2022/01/11 09:03:23;;;;;;;33.20;15.00;;;;;;;-145.18;100.00;47709.47;5022342;28;20088;-72
2022/01/11 09:05:49;;;;;;;35.40;15.98;;;;;;;-145.18;100.00;47711.44;5022112;28;20073;-72
2022/01/11 09:08:14;;;;;;;35.57;15.90;;;;;;;-145.18;100.00;47717.28;5006747;28;20824;-73
2022/01/11 09:10:39;;;;;;;44.20;17.50;;;;;;;-145.18;100.00;47711.44;5024033;28;20449;-72
2022/01/11 09:13:05;;;;;;;36.47;15.53;;;;;;;-145.18;100.00;47709.47;5023873;28;20041;-73
2022/01/11 09:15:32;;;;;;;35.07;15.50;;;;;;;-145.18;100.00;47693.84;5022451;28;20041;-72
2022/01/11 09:17:58;;;;;;;35.10;16.30;;;;;;;-145.18;100.00;47695.81;5023909;28;20041;-74
2022/01/11 09:20:23;;;;;;;33.50;14.67;;;;;;;-145.18;100.00;47705.56;5023570;28;20076;-72
2022/01/11 09:22:49;;;;;;;32.77;15.40;;;;;;;-145.18;100.00;47707.53;5016303;28;20041;-73
2022/01/11 09:25:16;;;;;;;32.07;14.87;;;;;;;-145.18;100.00;47719.25;5021553;28;20060;-72
2022/01/11 09:27:42;;;;;;;33.88;14.75;;;;;;;-145.18;100.00;47691.91;5021345;28;20122;-72
2022/01/11 09:30:10;;;;;;;32.45;15.30;;;;;;;-145.18;100.00;47687.97;5021569;28;20494;-72
2022/01/11 09:32:37;;;;;;;33.53;15.40;;;;;;;-145.18;100.00;47703.63;5017664;28;20041;-73
2022/01/11 09:35:06;;;;;;;30.75;14.73;;;;;;;-145.18;100.00;47691.91;5018930;28;20136;-74
2022/01/11 09:37:31;;;;;;;29.27;14.00;;;;;;;-145.18;100.00;47668.44;5019963;28;20069;-72
2022/01/11 09:39:57;;;;;;;35.00;14.57;;;;;;;-145.18;100.00;47691.91;5018294;28;20141;-72
2022/01/11 09:42:23;;;;;;;30.13;14.73;;;;;;;-145.18;100.00;47672.34;5021740;28;20041;-72
2022/01/11 09:44:49;;;;;;;28.75;14.13;;;;;;;-145.18;100.00;47682.13;5021765;28;20033;-72
2022/01/11 09:47:15;;;;;;;35.17;14.90;;;;;;;-145.18;100.00;47682.13;5020352;28;20091;-72
2022/01/11 09:49:41;;;;;;;29.30;13.90;;;;;;;-145.18;100.00;47686.03;5020569;28;20046;-73
2022/01/11 09:52:08;;;;;;;39.38;14.95;;;;;;;-145.18;100.00;47689.94;5018478;28;20046;-74
2022/01/11 09:54:36;;;;;;;33.65;14.65;;;;;;;-145.18;100.00;47713.38;5020276;28;20053;-73
2022/01/11 09:57:02;;;;;;;32.72;14.15;;;;;;;-145.18;100.00;47678.22;5019935;28;20041;-72
2022/01/11 09:59:27;;;;;;;30.47;13.63;;;;;;;-145.18;100.00;47670.41;5019348;28;20042;-72
2022/01/11 10:01:54;;;;;;;33.57;13.80;;;;;;;-145.18;100.00;47678.22;5022277;28;20688;-72
2022/01/11 10:04:28;;;;;;;26.33;13.73;;;;;;;-145.18;100.00;47637.19;5022589;28;20092;-72
2022/01/11 10:07:02;;;;;;;30.38;13.80;;;;;;;-145.18;100.00;47680.16;5020343;28;20766;-72
2022/01/11 10:09:30;;;;;;;27.13;12.13;;;;;;;-145.18;100.00;47674.31;5017961;28;20057;-72
2022/01/11 10:12:01;;;;;;;28.52;12.80;;;;;;;-145.18;100.00;47674.31;5017942;28;20057;-72
2022/01/11 10:14:32;;;;;;;32.92;12.80;;;;;;;-145.18;100.00;47668.44;5016338;28;20041;-73
2022/01/11 10:17:08;;;;;;;25.70;13.23;;;;;;;-145.18;100.00;47668.44;5022810;28;20171;-73
2022/01/11 10:19:35;;;;;;;27.90;12.40;;;;;;;-145.18;100.00;47656.72;5022093;28;20072;-72
2022/01/11 10:22:06;;;;;;;32.85;12.68;;;;;;;-145.18;100.00;47658.69;5022925;28;20052;-72
2022/01/11 10:24:37;;;;;;;28.30;12.32;;;;;;;-145.18;100.00;47672.34;5021371;28;20392;-72
2022/01/11 10:27:07;;;;;;;26.65;12.35;;;;;;;-145.18;100.00;47668.44;5017744;28;20435;-73
2022/01/11 10:29:37;;;;;;;26.88;12.45;;;;;;;-145.18;100.00;47672.34;5020741;28;20463;-72
2022/01/11 10:32:18;;;;;;;25.55;12.27;;;;;;;-145.18;100.00;47643.03;5022260;28;20085;-73
2022/01/11 10:34:48;;;;;;;32.65;12.55;;;;;;;-145.18;100.00;47656.72;5019039;28;20269;-73
2022/01/11 10:37:15;;;;;;;26.88;13.15;;;;;;;-145.18;100.00;47643.03;5022948;28;20034;-73
2022/01/11 10:39:44;;;;;;;25.55;12.02;;;;;;;-145.18;100.00;47635.22;5020611;28;20107;-73
2022/01/11 10:42:38;;;;;;;26.52;12.20;;;;;;;-145.18;100.00;47623.50;5025111;28;20844;-72
2022/01/11 10:45:07;;;;;;;29.65;12.13;;;;;;;-145.18;100.00;47637.19;5025470;28;20091;-72
2022/01/11 10:47:42;;;;;;;29.33;12.87;;;;;;;-145.18;100.00;47635.22;5026693;28;20040;-73
2022/01/11 10:50:18;;;;;;;21.02;11.45;;;;;;;-145.18;100.00;47629.38;5028076;28;20281;-73
2022/01/11 10:52:45;;;;;;;28.05;12.63;;;;;;;-145.18;100.00;47633.28;5026493;28;20181;-73
2022/01/11 10:55:16;;;;;;;25.85;12.30;;;;;;;-145.18;100.00;47621.56;5026796;28;20040;-72